sensor_id;sensor_type;location;lat;lon;timestamp;temperature;humidity
11126;DHT22;5617;54.046;10.676;2022-09-28T00:01:53;10.10;99.90
11126;DHT22;5617;54.046;10.676;2022-09-28T00:04:01;10.10;99.90
11126;DHT22;5617;54.046;10.676;2022-09-28T00:06:12;10.10;99.90
11126;DHT22;5617;54.046;10.676;2022-09-28T00:08:21;10.10;99.90
11126;DHT22;5617;54.046;10.676;2022-09-28T00:10:28;10.10;99.90
11126;DHT22;5617;54.046;10.676;2022-09-28T00:12:36;10.10;99.90
11126;DHT22;5617;54.046;10.676;2022-09-28T00:14:44;10.10;99.90
11126;DHT22;5617;54.046;10.676;2022-09-28T00:16:52;10.10;99.90
11126;DHT22;5617;54.046;10.676;2022-09-28T00:19:00;10.20;99.90
11126;DHT22;5617;54.046;10.676;2022-09-28T00:21:11;10.10;99.90
11126;DHT22;5617;54.046;10.676;2022-09-28T00:23:19;10.10;99.90
11126;DHT22;5617;54.046;10.676;2022-09-28T00:25:27;10.10;99.90
11126;DHT22;5617;54.046;10.676;2022-09-28T00:27:35;10.10;99.90
11126;DHT22;5617;54.046;10.676;2022-09-28T00:29:43;10.20;99.90
11126;DHT22;5617;54.046;10.676;2022-09-28T00:31:52;10.20;99.90
11126;DHT22;5617;54.046;10.676;2022-09-28T00:34:02;10.20;99.90
11126;DHT22;5617;54.046;10.676;2022-09-28T00:36:12;10.20;99.90
11126;DHT22;5617;54.046;10.676;2022-09-28T00:38:20;10.20;99.90
11126;DHT22;5617;54.046;10.676;2022-09-28T00:40:27;10.20;99.90
11126;DHT22;5617;54.046;10.676;2022-09-28T00:42:35;10.20;99.90
11126;DHT22;5617;54.046;10.676;2022-09-28T00:44:47;10.20;99.90
11126;DHT22;5617;54.046;10.676;2022-09-28T00:46:58;10.20;99.90
11126;DHT22;5617;54.046;10.676;2022-09-28T00:49:10;10.20;99.90
11126;DHT22;5617;54.046;10.676;2022-09-28T00:51:23;10.20;99.90
11126;DHT22;5617;54.046;10.676;2022-09-28T00:53:34;10.30;99.90
11126;DHT22;5617;54.046;10.676;2022-09-28T00:55:47;10.20;99.90
11126;DHT22;5617;54.046;10.676;2022-09-28T00:57:57;10.20;99.90
11126;DHT22;5617;54.046;10.676;2022-09-28T01:00:08;10.20;99.90
11126;DHT22;5617;54.046;10.676;2022-09-28T01:02:18;10.20;99.90
11126;DHT22;5617;54.046;10.676;2022-09-28T01:04:26;10.20;99.90
11126;DHT22;5617;54.046;10.676;2022-09-28T01:06:37;10.20;99.90
11126;DHT22;5617;54.046;10.676;2022-09-28T01:08:47;10.10;99.90
11126;DHT22;5617;54.046;10.676;2022-09-28T01:10:57;10.10;99.90
11126;DHT22;5617;54.046;10.676;2022-09-28T01:13:05;10.10;99.90
11126;DHT22;5617;54.046;10.676;2022-09-28T01:15:13;10.10;99.90
11126;DHT22;5617;54.046;10.676;2022-09-28T01:17:25;10.00;99.90
11126;DHT22;5617;54.046;10.676;2022-09-28T01:19:54;10.00;99.90
11126;DHT22;5617;54.046;10.676;2022-09-28T01:22:22;10.00;99.90
11126;DHT22;5617;54.046;10.676;2022-09-28T01:24:39;10.00;99.90
11126;DHT22;5617;54.046;10.676;2022-09-28T01:26:58;10.00;99.90
11126;DHT22;5617;54.046;10.676;2022-09-28T01:29:14;10.00;99.90
11126;DHT22;5617;54.046;10.676;2022-09-28T01:31:26;9.90;99.90
11126;DHT22;5617;54.046;10.676;2022-09-28T01:33:38;9.90;99.90
11126;DHT22;5617;54.046;10.676;2022-09-28T01:35:52;9.90;99.90
11126;DHT22;5617;54.046;10.676;2022-09-28T01:38:07;9.90;99.90
11126;DHT22;5617;54.046;10.676;2022-09-28T01:40:16;9.90;99.90
11126;DHT22;5617;54.046;10.676;2022-09-28T01:42:29;9.90;99.90
11126;DHT22;5617;54.046;10.676;2022-09-28T01:44:42;9.90;99.90
11126;DHT22;5617;54.046;10.676;2022-09-28T01:46:51;9.90;99.90
11126;DHT22;5617;54.046;10.676;2022-09-28T01:49:27;9.90;99.90
11126;DHT22;5617;54.046;10.676;2022-09-28T01:51:39;9.90;99.90
11126;DHT22;5617;54.046;10.676;2022-09-28T01:53:51;9.90;99.90
11126;DHT22;5617;54.046;10.676;2022-09-28T01:56:04;9.90;99.90
11126;DHT22;5617;54.046;10.676;2022-09-28T01:58:17;9.90;99.90
11126;DHT22;5617;54.046;10.676;2022-09-28T02:00:29;9.90;99.90
11126;DHT22;5617;54.046;10.676;2022-09-28T02:02:42;9.90;99.90
11126;DHT22;5617;54.046;10.676;2022-09-28T02:04:54;9.90;99.90
11126;DHT22;5617;54.046;10.676;2022-09-28T02:07:07;9.90;99.90
11126;DHT22;5617;54.046;10.676;2022-09-28T02:09:18;9.90;99.90
11126;DHT22;5617;54.046;10.676;2022-09-28T02:11:28;9.90;99.90
11126;DHT22;5617;54.046;10.676;2022-09-28T02:13:39;9.90;99.90
11126;DHT22;5617;54.046;10.676;2022-09-28T02:15:50;9.90;99.90
11126;DHT22;5617;54.046;10.676;2022-09-28T02:18:00;9.90;99.90
11126;DHT22;5617;54.046;10.676;2022-09-28T02:20:08;9.90;99.90
11126;DHT22;5617;54.046;10.676;2022-09-28T02:22:23;9.90;99.90
11126;DHT22;5617;54.046;10.676;2022-09-28T02:24:36;9.90;99.90
11126;DHT22;5617;54.046;10.676;2022-09-28T02:26:47;10.00;99.90
11126;DHT22;5617;54.046;10.676;2022-09-28T02:28:57;10.00;99.90
11126;DHT22;5617;54.046;10.676;2022-09-28T02:31:05;10.00;99.90
11126;DHT22;5617;54.046;10.676;2022-09-28T02:33:15;10.00;99.90
11126;DHT22;5617;54.046;10.676;2022-09-28T02:35:24;10.00;99.90
11126;DHT22;5617;54.046;10.676;2022-09-28T02:37:31;10.00;99.90
11126;DHT22;5617;54.046;10.676;2022-09-28T02:39:40;10.00;99.90
11126;DHT22;5617;54.046;10.676;2022-09-28T02:41:54;10.00;99.90
11126;DHT22;5617;54.046;10.676;2022-09-28T02:44:17;10.00;99.90
11126;DHT22;5617;54.046;10.676;2022-09-28T02:46:30;10.00;99.90
11126;DHT22;5617;54.046;10.676;2022-09-28T02:48:50;10.00;99.90
11126;DHT22;5617;54.046;10.676;2022-09-28T02:51:04;10.00;99.90
11126;DHT22;5617;54.046;10.676;2022-09-28T02:53:28;9.90;99.90
11126;DHT22;5617;54.046;10.676;2022-09-28T02:55:48;9.90;99.90
11126;DHT22;5617;54.046;10.676;2022-09-28T02:58:13;9.90;99.90
11126;DHT22;5617;54.046;10.676;2022-09-28T03:00:28;9.90;99.90
11126;DHT22;5617;54.046;10.676;2022-09-28T03:02:44;9.90;99.90
11126;DHT22;5617;54.046;10.676;2022-09-28T03:05:10;9.90;99.90
11126;DHT22;5617;54.046;10.676;2022-09-28T03:07:25;9.90;99.90
11126;DHT22;5617;54.046;10.676;2022-09-28T03:09:59;9.90;99.90
11126;DHT22;5617;54.046;10.676;2022-09-28T03:12:11;9.90;99.90
11126;DHT22;5617;54.046;10.676;2022-09-28T03:14:21;9.90;99.90
11126;DHT22;5617;54.046;10.676;2022-09-28T03:16:33;9.90;99.90
11126;DHT22;5617;54.046;10.676;2022-09-28T03:18:43;9.90;99.90
11126;DHT22;5617;54.046;10.676;2022-09-28T03:20:51;9.90;99.90
11126;DHT22;5617;54.046;10.676;2022-09-28T03:23:01;9.90;99.90
11126;DHT22;5617;54.046;10.676;2022-09-28T03:25:09;9.90;99.90
11126;DHT22;5617;54.046;10.676;2022-09-28T03:27:19;9.90;99.90
11126;DHT22;5617;54.046;10.676;2022-09-28T03:29:27;9.90;99.90
11126;DHT22;5617;54.046;10.676;2022-09-28T03:31:38;9.90;99.90
11126;DHT22;5617;54.046;10.676;2022-09-28T03:33:47;9.90;99.90
11126;DHT22;5617;54.046;10.676;2022-09-28T03:35:55;10.00;99.90
11126;DHT22;5617;54.046;10.676;2022-09-28T03:38:04;10.00;99.90
11126;DHT22;5617;54.046;10.676;2022-09-28T03:40:15;9.90;99.90
11126;DHT22;5617;54.046;10.676;2022-09-28T03:42:23;9.90;99.90
11126;DHT22;5617;54.046;10.676;2022-09-28T03:44:31;9.90;99.90
11126;DHT22;5617;54.046;10.676;2022-09-28T03:46:43;9.90;99.90
11126;DHT22;5617;54.046;10.676;2022-09-28T03:48:55;9.90;99.90
11126;DHT22;5617;54.046;10.676;2022-09-28T03:51:05;9.90;99.90
11126;DHT22;5617;54.046;10.676;2022-09-28T03:53:14;9.90;99.90
11126;DHT22;5617;54.046;10.676;2022-09-28T03:55:22;9.90;99.90
11126;DHT22;5617;54.046;10.676;2022-09-28T03:57:30;9.90;99.90
11126;DHT22;5617;54.046;10.676;2022-09-28T03:59:38;9.90;99.90
11126;DHT22;5617;54.046;10.676;2022-09-28T04:01:49;9.90;99.90
11126;DHT22;5617;54.046;10.676;2022-09-28T04:03:56;9.90;99.90
11126;DHT22;5617;54.046;10.676;2022-09-28T04:06:04;9.90;99.90
11126;DHT22;5617;54.046;10.676;2022-09-28T04:08:11;9.90;99.90
11126;DHT22;5617;54.046;10.676;2022-09-28T04:10:19;9.90;99.90
11126;DHT22;5617;54.046;10.676;2022-09-28T04:12:27;10.00;99.90
11126;DHT22;5617;54.046;10.676;2022-09-28T04:14:35;10.00;99.90
11126;DHT22;5617;54.046;10.676;2022-09-28T04:16:43;10.00;99.90
11126;DHT22;5617;54.046;10.676;2022-09-28T04:18:52;10.00;99.90
11126;DHT22;5617;54.046;10.676;2022-09-28T04:21:01;10.00;99.90
11126;DHT22;5617;54.046;10.676;2022-09-28T04:23:11;10.00;99.90
11126;DHT22;5617;54.046;10.676;2022-09-28T04:25:19;10.00;99.90
11126;DHT22;5617;54.046;10.676;2022-09-28T04:27:27;10.00;99.90
11126;DHT22;5617;54.046;10.676;2022-09-28T04:29:52;10.00;99.90
11126;DHT22;5617;54.046;10.676;2022-09-28T04:32:00;10.00;99.90
11126;DHT22;5617;54.046;10.676;2022-09-28T04:34:09;9.90;99.90
11126;DHT22;5617;54.046;10.676;2022-09-28T04:36:17;9.90;99.90
11126;DHT22;5617;54.046;10.676;2022-09-28T04:38:25;9.90;99.90
11126;DHT22;5617;54.046;10.676;2022-09-28T04:40:32;9.90;99.90
11126;DHT22;5617;54.046;10.676;2022-09-28T04:42:40;9.90;99.90
11126;DHT22;5617;54.046;10.676;2022-09-28T04:44:48;9.90;99.90
11126;DHT22;5617;54.046;10.676;2022-09-28T04:46:55;9.90;99.90
11126;DHT22;5617;54.046;10.676;2022-09-28T04:49:03;9.90;99.90
11126;DHT22;5617;54.046;10.676;2022-09-28T04:51:14;9.90;99.90
11126;DHT22;5617;54.046;10.676;2022-09-28T04:53:21;9.90;99.90
11126;DHT22;5617;54.046;10.676;2022-09-28T04:55:29;9.80;99.90
11126;DHT22;5617;54.046;10.676;2022-09-28T04:57:38;9.80;99.90
11126;DHT22;5617;54.046;10.676;2022-09-28T04:59:45;9.80;99.90
11126;DHT22;5617;54.046;10.676;2022-09-28T05:01:53;9.80;99.90
11126;DHT22;5617;54.046;10.676;2022-09-28T05:04:01;9.80;99.90
11126;DHT22;5617;54.046;10.676;2022-09-28T05:06:12;9.90;99.90
11126;DHT22;5617;54.046;10.676;2022-09-28T05:08:21;9.80;99.90
11126;DHT22;5617;54.046;10.676;2022-09-28T05:10:29;9.80;99.90
11126;DHT22;5617;54.046;10.676;2022-09-28T05:12:36;9.80;99.90
11126;DHT22;5617;54.046;10.676;2022-09-28T05:14:44;9.80;99.90
11126;DHT22;5617;54.046;10.676;2022-09-28T05:16:51;9.90;99.90
11126;DHT22;5617;54.046;10.676;2022-09-28T05:19:00;9.90;99.90
11126;DHT22;5617;54.046;10.676;2022-09-28T05:21:11;9.90;99.90
11126;DHT22;5617;54.046;10.676;2022-09-28T05:23:20;9.90;99.90
11126;DHT22;5617;54.046;10.676;2022-09-28T05:25:28;9.80;99.90
11126;DHT22;5617;54.046;10.676;2022-09-28T05:27:35;9.80;99.90
11126;DHT22;5617;54.046;10.676;2022-09-28T05:29:43;9.90;99.90
11126;DHT22;5617;54.046;10.676;2022-09-28T05:31:51;9.90;99.90
11126;DHT22;5617;54.046;10.676;2022-09-28T05:33:59;9.90;99.90
11126;DHT22;5617;54.046;10.676;2022-09-28T05:36:08;9.90;99.90
11126;DHT22;5617;54.046;10.676;2022-09-28T05:38:17;9.90;99.90
11126;DHT22;5617;54.046;10.676;2022-09-28T05:40:26;9.90;99.90
11126;DHT22;5617;54.046;10.676;2022-09-28T05:42:34;9.90;99.90
11126;DHT22;5617;54.046;10.676;2022-09-28T05:44:42;9.90;99.90
11126;DHT22;5617;54.046;10.676;2022-09-28T05:46:52;9.90;99.90
11126;DHT22;5617;54.046;10.676;2022-09-28T05:49:00;9.90;99.90
11126;DHT22;5617;54.046;10.676;2022-09-28T05:51:07;9.90;99.90
11126;DHT22;5617;54.046;10.676;2022-09-28T05:53:15;9.90;99.90
11126;DHT22;5617;54.046;10.676;2022-09-28T05:55:23;9.80;99.90
11126;DHT22;5617;54.046;10.676;2022-09-28T05:57:32;9.90;99.90
11126;DHT22;5617;54.046;10.676;2022-09-28T05:59:40;9.90;99.90
11126;DHT22;5617;54.046;10.676;2022-09-28T06:01:47;9.90;99.90
11126;DHT22;5617;54.046;10.676;2022-09-28T06:03:55;9.90;99.90
11126;DHT22;5617;54.046;10.676;2022-09-28T06:06:03;9.90;99.90
11126;DHT22;5617;54.046;10.676;2022-09-28T06:08:11;9.90;99.90
11126;DHT22;5617;54.046;10.676;2022-09-28T06:10:19;9.90;99.90
11126;DHT22;5617;54.046;10.676;2022-09-28T06:12:27;9.90;99.90
11126;DHT22;5617;54.046;10.676;2022-09-28T06:14:36;9.90;99.90
11126;DHT22;5617;54.046;10.676;2022-09-28T06:16:44;9.90;99.90
11126;DHT22;5617;54.046;10.676;2022-09-28T06:18:53;9.80;99.90
11126;DHT22;5617;54.046;10.676;2022-09-28T06:21:00;9.80;99.90
11126;DHT22;5617;54.046;10.676;2022-09-28T06:23:08;9.80;99.90
11126;DHT22;5617;54.046;10.676;2022-09-28T06:25:16;9.80;99.90
11126;DHT22;5617;54.046;10.676;2022-09-28T06:27:23;9.90;99.90
11126;DHT22;5617;54.046;10.676;2022-09-28T06:29:31;9.80;99.90
11126;DHT22;5617;54.046;10.676;2022-09-28T06:31:40;9.80;99.90
11126;DHT22;5617;54.046;10.676;2022-09-28T06:33:49;9.80;99.90
11126;DHT22;5617;54.046;10.676;2022-09-28T06:35:58;9.80;99.90
11126;DHT22;5617;54.046;10.676;2022-09-28T06:38:06;9.80;99.90
11126;DHT22;5617;54.046;10.676;2022-09-28T06:40:14;9.80;99.90
11126;DHT22;5617;54.046;10.676;2022-09-28T06:42:22;9.80;99.90
11126;DHT22;5617;54.046;10.676;2022-09-28T06:44:30;9.70;99.90
11126;DHT22;5617;54.046;10.676;2022-09-28T06:46:37;9.70;99.90
11126;DHT22;5617;54.046;10.676;2022-09-28T06:48:47;9.80;99.90
11126;DHT22;5617;54.046;10.676;2022-09-28T06:50:55;9.80;99.90
11126;DHT22;5617;54.046;10.676;2022-09-28T06:53:03;9.90;99.90
11126;DHT22;5617;54.046;10.676;2022-09-28T06:55:11;9.90;99.90
11126;DHT22;5617;54.046;10.676;2022-09-28T06:57:19;10.00;99.90
11126;DHT22;5617;54.046;10.676;2022-09-28T06:59:27;10.10;99.90
11126;DHT22;5617;54.046;10.676;2022-09-28T07:01:35;10.20;99.90
11126;DHT22;5617;54.046;10.676;2022-09-28T07:03:43;10.20;99.90
11126;DHT22;5617;54.046;10.676;2022-09-28T07:05:53;10.20;99.90
11126;DHT22;5617;54.046;10.676;2022-09-28T07:08:02;10.20;99.90
11126;DHT22;5617;54.046;10.676;2022-09-28T07:10:10;10.20;99.90
11126;DHT22;5617;54.046;10.676;2022-09-28T07:12:18;10.20;99.90
11126;DHT22;5617;54.046;10.676;2022-09-28T07:14:26;10.30;99.90
11126;DHT22;5617;54.046;10.676;2022-09-28T07:16:33;10.30;99.90
11126;DHT22;5617;54.046;10.676;2022-09-28T07:18:41;10.30;99.90
11126;DHT22;5617;54.046;10.676;2022-09-28T07:20:49;10.30;99.90
11126;DHT22;5617;54.046;10.676;2022-09-28T07:22:59;10.30;99.90
11126;DHT22;5617;54.046;10.676;2022-09-28T07:25:08;10.30;99.90
11126;DHT22;5617;54.046;10.676;2022-09-28T07:27:16;10.30;99.90
11126;DHT22;5617;54.046;10.676;2022-09-28T07:29:24;10.30;99.90
11126;DHT22;5617;54.046;10.676;2022-09-28T07:31:32;10.30;99.90
11126;DHT22;5617;54.046;10.676;2022-09-28T07:33:40;10.40;99.90
11126;DHT22;5617;54.046;10.676;2022-09-28T07:35:53;10.40;99.90
11126;DHT22;5617;54.046;10.676;2022-09-28T07:38:04;10.40;99.90
11126;DHT22;5617;54.046;10.676;2022-09-28T07:40:12;10.50;99.90
11126;DHT22;5617;54.046;10.676;2022-09-28T07:42:38;10.60;99.90
11126;DHT22;5617;54.046;10.676;2022-09-28T07:44:45;10.70;99.90
11126;DHT22;5617;54.046;10.676;2022-09-28T07:46:53;10.70;99.90
11126;DHT22;5617;54.046;10.676;2022-09-28T07:49:02;10.70;99.90
11126;DHT22;5617;54.046;10.676;2022-09-28T07:51:10;10.80;99.90
11126;DHT22;5617;54.046;10.676;2022-09-28T07:53:20;10.80;99.90
11126;DHT22;5617;54.046;10.676;2022-09-28T07:55:28;10.80;99.90
11126;DHT22;5617;54.046;10.676;2022-09-28T07:57:36;10.80;99.90
11126;DHT22;5617;54.046;10.676;2022-09-28T07:59:45;10.90;99.90
11126;DHT22;5617;54.046;10.676;2022-09-28T08:01:53;11.00;99.90
11126;DHT22;5617;54.046;10.676;2022-09-28T08:04:01;11.10;99.90
11126;DHT22;5617;54.046;10.676;2022-09-28T08:06:08;11.10;99.90
11126;DHT22;5617;54.046;10.676;2022-09-28T08:08:22;11.10;99.90
11126;DHT22;5617;54.046;10.676;2022-09-28T08:10:29;11.20;99.90
11126;DHT22;5617;54.046;10.676;2022-09-28T08:12:37;11.30;99.90
11126;DHT22;5617;54.046;10.676;2022-09-28T08:14:47;11.40;99.90
11126;DHT22;5617;54.046;10.676;2022-09-28T08:16:55;11.50;99.90
11126;DHT22;5617;54.046;10.676;2022-09-28T08:19:04;11.60;99.90
11126;DHT22;5617;54.046;10.676;2022-09-28T08:21:11;11.60;99.90
11126;DHT22;5617;54.046;10.676;2022-09-28T08:23:38;11.60;99.90
11126;DHT22;5617;54.046;10.676;2022-09-28T08:25:46;11.50;99.90
11126;DHT22;5617;54.046;10.676;2022-09-28T08:27:55;11.50;99.90
11126;DHT22;5617;54.046;10.676;2022-09-28T08:30:03;11.50;99.90
11126;DHT22;5617;54.046;10.676;2022-09-28T08:32:11;11.60;99.90
11126;DHT22;5617;54.046;10.676;2022-09-28T08:34:20;11.70;99.90
11126;DHT22;5617;54.046;10.676;2022-09-28T08:36:28;11.80;99.90
11126;DHT22;5617;54.046;10.676;2022-09-28T08:38:35;12.00;99.90
11126;DHT22;5617;54.046;10.676;2022-09-28T08:40:52;12.10;99.90
11126;DHT22;5617;54.046;10.676;2022-09-28T08:43:14;12.20;99.90
11126;DHT22;5617;54.046;10.676;2022-09-28T08:45:28;12.30;99.90
11126;DHT22;5617;54.046;10.676;2022-09-28T08:47:44;12.40;99.90
11126;DHT22;5617;54.046;10.676;2022-09-28T08:50:15;12.40;99.90
11126;DHT22;5617;54.046;10.676;2022-09-28T08:52:28;12.40;99.90
11126;DHT22;5617;54.046;10.676;2022-09-28T08:54:42;12.50;99.90
11126;DHT22;5617;54.046;10.676;2022-09-28T08:57:00;12.60;99.90
11126;DHT22;5617;54.046;10.676;2022-09-28T08:59:12;12.70;99.90
11126;DHT22;5617;54.046;10.676;2022-09-28T09:01:22;12.70;99.90
11126;DHT22;5617;54.046;10.676;2022-09-28T09:03:35;12.60;99.90
11126;DHT22;5617;54.046;10.676;2022-09-28T09:05:55;12.70;99.90
11126;DHT22;5617;54.046;10.676;2022-09-28T09:08:24;13.00;99.90
11126;DHT22;5617;54.046;10.676;2022-09-28T09:10:45;13.00;99.90
11126;DHT22;5617;54.046;10.676;2022-09-28T09:13:00;12.90;99.90
11126;DHT22;5617;54.046;10.676;2022-09-28T09:15:19;12.80;99.90
11126;DHT22;5617;54.046;10.676;2022-09-28T09:17:41;12.70;99.90
11126;DHT22;5617;54.046;10.676;2022-09-28T09:19:52;12.60;99.90
11126;DHT22;5617;54.046;10.676;2022-09-28T09:22:13;12.50;99.90
11126;DHT22;5617;54.046;10.676;2022-09-28T09:24:24;12.50;99.90
11126;DHT22;5617;54.046;10.676;2022-09-28T09:26:36;12.60;99.90
11126;DHT22;5617;54.046;10.676;2022-09-28T09:29:02;12.50;99.90
11126;DHT22;5617;54.046;10.676;2022-09-28T09:31:23;12.60;99.90
11126;DHT22;5617;54.046;10.676;2022-09-28T09:33:49;12.60;99.90
11126;DHT22;5617;54.046;10.676;2022-09-28T09:36:10;12.70;99.90
11126;DHT22;5617;54.046;10.676;2022-09-28T09:38:37;12.80;99.90
11126;DHT22;5617;54.046;10.676;2022-09-28T09:41:04;13.00;99.90
11126;DHT22;5617;54.046;10.676;2022-09-28T09:43:37;13.40;99.90
11126;DHT22;5617;54.046;10.676;2022-09-28T09:46:05;13.70;99.90
11126;DHT22;5617;54.046;10.676;2022-09-28T09:48:24;13.80;99.90
11126;DHT22;5617;54.046;10.676;2022-09-28T09:50:38;13.80;99.90
11126;DHT22;5617;54.046;10.676;2022-09-28T09:52:50;14.00;99.90
11126;DHT22;5617;54.046;10.676;2022-09-28T09:55:04;14.10;99.90
11126;DHT22;5617;54.046;10.676;2022-09-28T09:57:17;14.20;99.90
11126;DHT22;5617;54.046;10.676;2022-09-28T09:59:30;14.20;99.90
11126;DHT22;5617;54.046;10.676;2022-09-28T10:01:40;14.10;99.90
11126;DHT22;5617;54.046;10.676;2022-09-28T10:03:49;14.20;99.90
11126;DHT22;5617;54.046;10.676;2022-09-28T10:06:00;14.10;99.90
11126;DHT22;5617;54.046;10.676;2022-09-28T10:08:13;14.00;99.90
11126;DHT22;5617;54.046;10.676;2022-09-28T10:10:25;14.00;99.90
11126;DHT22;5617;54.046;10.676;2022-09-28T10:12:34;14.20;99.90
11126;DHT22;5617;54.046;10.676;2022-09-28T10:14:42;14.40;99.90
11126;DHT22;5617;54.046;10.676;2022-09-28T10:16:53;14.60;99.90
11126;DHT22;5617;54.046;10.676;2022-09-28T10:19:02;14.60;99.90
11126;DHT22;5617;54.046;10.676;2022-09-28T10:21:11;14.30;99.90
11126;DHT22;5617;54.046;10.676;2022-09-28T10:23:21;14.10;99.90
11126;DHT22;5617;54.046;10.676;2022-09-28T10:25:31;14.00;99.90
11126;DHT22;5617;54.046;10.676;2022-09-28T10:27:42;14.00;99.90
11126;DHT22;5617;54.046;10.676;2022-09-28T10:29:53;14.00;99.90
11126;DHT22;5617;54.046;10.676;2022-09-28T10:32:17;14.20;99.90
11126;DHT22;5617;54.046;10.676;2022-09-28T10:34:27;14.50;99.90
11126;DHT22;5617;54.046;10.676;2022-09-28T10:36:51;14.40;99.90
11126;DHT22;5617;54.046;10.676;2022-09-28T10:39:00;14.50;99.90
11126;DHT22;5617;54.046;10.676;2022-09-28T10:41:11;14.80;99.90
11126;DHT22;5617;54.046;10.676;2022-09-28T10:43:23;14.90;99.90
11126;DHT22;5617;54.046;10.676;2022-09-28T10:45:34;15.10;99.90
11126;DHT22;5617;54.046;10.676;2022-09-28T10:47:44;15.20;99.90
11126;DHT22;5617;54.046;10.676;2022-09-28T10:49:54;15.10;99.90
11126;DHT22;5617;54.046;10.676;2022-09-28T10:52:02;15.10;99.90
11126;DHT22;5617;54.046;10.676;2022-09-28T10:54:14;15.20;99.90
11126;DHT22;5617;54.046;10.676;2022-09-28T10:56:27;14.90;99.90
11126;DHT22;5617;54.046;10.676;2022-09-28T10:58:37;14.60;99.90
11126;DHT22;5617;54.046;10.676;2022-09-28T11:00:46;14.40;99.90
11126;DHT22;5617;54.046;10.676;2022-09-28T11:02:55;14.30;99.90
11126;DHT22;5617;54.046;10.676;2022-09-28T11:05:05;14.30;99.90
11126;DHT22;5617;54.046;10.676;2022-09-28T11:07:16;14.10;99.90
11126;DHT22;5617;54.046;10.676;2022-09-28T11:09:27;13.90;99.90
11126;DHT22;5617;54.046;10.676;2022-09-28T11:11:39;13.70;99.90
11126;DHT22;5617;54.046;10.676;2022-09-28T11:13:49;13.50;99.90
11126;DHT22;5617;54.046;10.676;2022-09-28T11:15:57;13.50;99.90
11126;DHT22;5617;54.046;10.676;2022-09-28T11:18:22;13.60;99.90
11126;DHT22;5617;54.046;10.676;2022-09-28T11:20:33;13.60;99.90
11126;DHT22;5617;54.046;10.676;2022-09-28T11:22:41;13.70;99.90
11126;DHT22;5617;54.046;10.676;2022-09-28T11:24:50;13.70;99.90
11126;DHT22;5617;54.046;10.676;2022-09-28T11:26:59;13.70;99.90
11126;DHT22;5617;54.046;10.676;2022-09-28T11:29:19;13.70;99.90
11126;DHT22;5617;54.046;10.676;2022-09-28T11:31:28;13.60;99.90
11126;DHT22;5617;54.046;10.676;2022-09-28T11:33:39;13.60;99.90
11126;DHT22;5617;54.046;10.676;2022-09-28T11:35:50;13.50;99.90
11126;DHT22;5617;54.046;10.676;2022-09-28T11:38:11;13.40;99.90
11126;DHT22;5617;54.046;10.676;2022-09-28T11:40:28;13.40;99.90
11126;DHT22;5617;54.046;10.676;2022-09-28T11:42:43;13.40;99.90
11126;DHT22;5617;54.046;10.676;2022-09-28T11:44:57;13.60;99.90
11126;DHT22;5617;54.046;10.676;2022-09-28T11:47:48;13.70;99.90
11126;DHT22;5617;54.046;10.676;2022-09-28T11:50:03;13.80;99.90
11126;DHT22;5617;54.046;10.676;2022-09-28T11:52:17;13.80;99.90
11126;DHT22;5617;54.046;10.676;2022-09-28T11:54:33;14.00;99.90
11126;DHT22;5617;54.046;10.676;2022-09-28T11:56:47;14.10;99.90
11126;DHT22;5617;54.046;10.676;2022-09-28T11:58:58;14.30;99.90
11126;DHT22;5617;54.046;10.676;2022-09-28T12:01:16;14.50;99.90
11126;DHT22;5617;54.046;10.676;2022-09-28T12:03:32;14.40;99.90
11126;DHT22;5617;54.046;10.676;2022-09-28T12:05:48;14.40;99.90
11126;DHT22;5617;54.046;10.676;2022-09-28T12:07:59;14.30;99.90
11126;DHT22;5617;54.046;10.676;2022-09-28T12:10:18;14.30;99.90
11126;DHT22;5617;54.046;10.676;2022-09-28T12:12:29;14.60;99.90
11126;DHT22;5617;54.046;10.676;2022-09-28T12:14:39;14.90;99.90
11126;DHT22;5617;54.046;10.676;2022-09-28T12:16:52;15.10;99.90
11126;DHT22;5617;54.046;10.676;2022-09-28T12:19:04;15.20;99.90
11126;DHT22;5617;54.046;10.676;2022-09-28T12:21:31;15.20;99.90
11126;DHT22;5617;54.046;10.676;2022-09-28T12:23:41;15.40;99.90
11126;DHT22;5617;54.046;10.676;2022-09-28T12:25:54;15.60;99.80
11126;DHT22;5617;54.046;10.676;2022-09-28T12:28:06;15.60;99.90
11126;DHT22;5617;54.046;10.676;2022-09-28T12:30:16;16.00;99.90
11126;DHT22;5617;54.046;10.676;2022-09-28T12:32:30;16.20;99.80
11126;DHT22;5617;54.046;10.676;2022-09-28T12:34:41;16.30;99.70
11126;DHT22;5617;54.046;10.676;2022-09-28T12:37:07;16.30;99.50
11126;DHT22;5617;54.046;10.676;2022-09-28T12:39:45;16.10;99.30
11126;DHT22;5617;54.046;10.676;2022-09-28T12:42:03;15.90;99.40
11126;DHT22;5617;54.046;10.676;2022-09-28T12:44:36;15.70;99.40
11126;DHT22;5617;54.046;10.676;2022-09-28T12:47:07;15.60;99.40
11126;DHT22;5617;54.046;10.676;2022-09-28T12:49:40;15.60;99.30
11126;DHT22;5617;54.046;10.676;2022-09-28T12:51:52;15.90;99.60
11126;DHT22;5617;54.046;10.676;2022-09-28T12:54:09;16.30;99.10
11126;DHT22;5617;54.046;10.676;2022-09-28T12:56:24;16.50;98.40
11126;DHT22;5617;54.046;10.676;2022-09-28T12:58:45;16.60;97.80
11126;DHT22;5617;54.046;10.676;2022-09-28T13:01:02;16.60;97.50
11126;DHT22;5617;54.046;10.676;2022-09-28T13:03:49;16.60;97.30
11126;DHT22;5617;54.046;10.676;2022-09-28T13:08:47;16.50;96.50
11126;DHT22;5617;54.046;10.676;2022-09-28T13:11:07;16.00;96.50
11126;DHT22;5617;54.046;10.676;2022-09-28T13:13:30;15.70;96.70
11126;DHT22;5617;54.046;10.676;2022-09-28T13:15:48;15.40;97.00
11126;DHT22;5617;54.046;10.676;2022-09-28T13:18:05;15.40;97.40
11126;DHT22;5617;54.046;10.676;2022-09-28T13:20:24;15.20;97.40
11126;DHT22;5617;54.046;10.676;2022-09-28T13:22:38;15.10;97.70
11126;DHT22;5617;54.046;10.676;2022-09-28T13:24:53;15.00;97.80
11126;DHT22;5617;54.046;10.676;2022-09-28T13:27:05;14.80;97.90
11126;DHT22;5617;54.046;10.676;2022-09-28T13:29:19;14.70;98.10
11126;DHT22;5617;54.046;10.676;2022-09-28T13:31:31;14.60;98.30
11126;DHT22;5617;54.046;10.676;2022-09-28T13:33:42;14.50;98.50
11126;DHT22;5617;54.046;10.676;2022-09-28T13:35:50;14.40;98.80
11126;DHT22;5617;54.046;10.676;2022-09-28T13:41:12;14.40;99.20
11126;DHT22;5617;54.046;10.676;2022-09-28T13:43:29;14.40;99.20
11126;DHT22;5617;54.046;10.676;2022-09-28T13:45:49;14.30;99.20
11126;DHT22;5617;54.046;10.676;2022-09-28T13:48:10;14.20;99.40
11126;DHT22;5617;54.046;10.676;2022-09-28T13:50:26;14.30;99.60
11126;DHT22;5617;54.046;10.676;2022-09-28T13:52:44;14.20;99.60
11126;DHT22;5617;54.046;10.676;2022-09-28T13:55:02;14.20;99.80
11126;DHT22;5617;54.046;10.676;2022-09-28T13:57:21;14.10;99.90
11126;DHT22;5617;54.046;10.676;2022-09-28T13:59:33;14.00;99.90
11126;DHT22;5617;54.046;10.676;2022-09-28T14:01:56;14.00;99.90
11126;DHT22;5617;54.046;10.676;2022-09-28T14:04:14;14.00;99.90
11126;DHT22;5617;54.046;10.676;2022-09-28T14:06:26;13.90;99.90